createdAt,value
2018-12-30T00:00:51.319Z,20.35
2018-12-30T00:01:56.201Z,21.57
2018-12-30T00:03:01.681Z,21.00
2018-12-30T00:04:07.333Z,20.95
2018-12-30T00:05:13.046Z,20.27
2018-12-30T00:06:18.142Z,20.43
2018-12-30T00:07:23.569Z,20.48
2018-12-30T00:08:30.094Z,21.27
2018-12-30T00:09:35.123Z,21.02
2018-12-30T00:10:40.333Z,20.77
2018-12-30T00:11:45.449Z,20.77
2018-12-30T00:12:50.912Z,21.42
2018-12-30T00:13:56.577Z,21.10
2018-12-30T00:15:01.921Z,22.07
2018-12-30T00:16:07.108Z,20.80
2018-12-30T00:17:12.056Z,22.20
2018-12-30T00:18:17.370Z,22.93
2018-12-30T00:19:22.259Z,23.62
2018-12-30T00:20:27.476Z,23.00
2018-12-30T00:21:32.553Z,23.75
2018-12-30T00:22:37.467Z,22.05
2018-12-30T00:23:45.828Z,22.32
2018-12-30T00:24:50.916Z,22.27
2018-12-30T00:25:56.150Z,22.55
2018-12-30T00:27:01.384Z,22.05
2018-12-30T00:28:06.332Z,23.47
2018-12-30T00:29:11.371Z,22.27
2018-12-30T00:30:16.444Z,23.87
2018-12-30T00:31:21.537Z,24.50
2018-12-30T00:32:26.740Z,23.75
2018-12-30T00:33:31.797Z,23.07
2018-12-30T00:34:36.857Z,23.35
2018-12-30T00:35:41.702Z,23.62
2018-12-30T00:36:46.817Z,23.73
2018-12-30T00:37:52.355Z,22.52
2018-12-30T00:38:57.666Z,21.82
2018-12-30T00:40:02.593Z,22.27
2018-12-30T00:41:08.304Z,22.85
2018-12-30T00:42:13.484Z,23.42
2018-12-30T00:43:18.851Z,22.20
2018-12-30T00:44:23.970Z,23.50
2018-12-30T00:45:29.171Z,23.20
2018-12-30T00:46:34.477Z,23.80
2018-12-30T00:47:39.386Z,23.32
2018-12-30T00:48:44.569Z,23.50
2018-12-30T00:49:49.670Z,24.32
2018-12-30T00:50:54.716Z,24.87
2018-12-30T00:51:59.854Z,23.22
2018-12-30T00:53:05.010Z,25.12
2018-12-30T00:54:10.112Z,24.00
2018-12-30T00:55:15.123Z,24.63
2018-12-30T00:56:21.301Z,25.52
2018-12-30T00:57:26.407Z,24.85
2018-12-30T00:58:31.624Z,24.40
2018-12-30T00:59:36.511Z,24.90
2018-12-30T01:00:41.672Z,26.00
2018-12-30T01:01:47.033Z,26.30
2018-12-30T01:02:52.313Z,26.10
2018-12-30T01:03:57.732Z,25.80
2018-12-30T01:05:02.728Z,26.17
2018-12-30T01:06:07.796Z,26.23
2018-12-30T01:07:12.937Z,26.42
2018-12-30T01:08:17.843Z,26.20
2018-12-30T01:09:24.443Z,26.15
2018-12-30T01:10:29.512Z,27.45
2018-12-30T01:11:34.613Z,27.95
2018-12-30T01:12:39.764Z,26.57
2018-12-30T01:13:44.839Z,27.15
2018-12-30T01:14:49.894Z,27.15
2018-12-30T01:15:54.984Z,26.60
2018-12-30T01:16:59.900Z,27.48
2018-12-30T01:18:04.806Z,27.30
2018-12-30T01:19:09.918Z,26.48
2018-12-30T01:20:15.115Z,26.65
2018-12-30T01:21:24.897Z,26.50
2018-12-30T01:22:26.785Z,26.25
2018-12-30T01:23:31.916Z,26.05
2018-12-30T01:24:36.759Z,26.23
2018-12-30T01:25:41.857Z,24.67
2018-12-30T01:26:47.220Z,25.27
2018-12-30T01:27:52.580Z,26.50
2018-12-30T01:28:57.478Z,26.27
2018-12-30T01:30:02.480Z,27.85
2018-12-30T01:31:07.616Z,25.52
2018-12-30T01:32:12.520Z,25.05
2018-12-30T01:33:17.444Z,25.68
2018-12-30T01:34:22.488Z,24.40
2018-12-30T01:35:27.436Z,25.82
2018-12-30T01:36:32.268Z,26.12
2018-12-30T01:37:37.069Z,26.73
2018-12-30T01:38:42.166Z,26.05
2018-12-30T01:39:47.269Z,26.97
2018-12-30T01:40:52.118Z,26.45
2018-12-30T01:41:58.269Z,25.37
2018-12-30T01:43:03.304Z,25.60
2018-12-30T01:44:08.372Z,26.02
2018-12-30T01:45:13.228Z,26.17
2018-12-30T01:46:18.300Z,25.68
2018-12-30T01:47:23.207Z,25.45
2018-12-30T01:48:29.272Z,26.30
2018-12-30T01:49:34.277Z,26.40
2018-12-30T01:50:39.405Z,25.10
2018-12-30T01:51:44.889Z,24.55
2018-12-30T01:52:50.197Z,24.77
2018-12-30T01:53:55.140Z,24.82
2018-12-30T01:55:00.004Z,25.20
2018-12-30T01:56:05.020Z,25.05
2018-12-30T01:57:09.829Z,25.43
2018-12-30T01:58:14.900Z,23.77
2018-12-30T01:59:20.056Z,24.80
2018-12-30T02:00:24.883Z,26.55
2018-12-30T02:01:29.866Z,24.70
2018-12-30T02:02:34.681Z,25.12
2018-12-30T02:03:39.733Z,25.32
2018-12-30T02:04:44.541Z,25.72
2018-12-30T02:05:49.542Z,25.60
2018-12-30T02:06:54.550Z,24.75
2018-12-30T02:07:59.557Z,24.85
2018-12-30T02:09:06.395Z,25.43
2018-12-30T02:10:11.305Z,25.05
2018-12-30T02:11:16.297Z,24.90
2018-12-30T02:12:21.185Z,24.00
2018-12-30T02:13:26.212Z,24.05
2018-12-30T02:14:31.104Z,25.75
2018-12-30T02:15:36.170Z,24.55
2018-12-30T02:16:40.968Z,23.90
2018-12-30T02:17:46.185Z,24.57
2018-12-30T02:18:51.568Z,25.25
2018-12-30T02:19:56.398Z,25.57
2018-12-30T02:21:01.736Z,25.25
2018-12-30T02:22:06.635Z,25.15
2018-12-30T02:23:11.691Z,26.10
2018-12-30T02:24:16.692Z,25.60
2018-12-30T02:25:21.481Z,26.90
2018-12-30T02:26:26.401Z,26.97
2018-12-30T02:27:31.465Z,26.23
2018-12-30T02:28:36.295Z,26.17
2018-12-30T02:29:41.321Z,25.97
2018-12-30T02:30:46.337Z,25.17
2018-12-30T02:31:51.152Z,25.80
2018-12-30T02:32:55.957Z,24.60
2018-12-30T02:34:01.036Z,25.57
2018-12-30T02:35:06.109Z,25.43
2018-12-30T02:36:10.946Z,26.65
2018-12-30T02:37:16.061Z,25.57
2018-12-30T02:38:20.981Z,25.97
2018-12-30T02:39:25.988Z,26.68
2018-12-30T02:40:30.778Z,26.82
2018-12-30T02:41:35.719Z,26.33
2018-12-30T02:42:40.624Z,25.57
2018-12-30T02:43:45.596Z,25.00
2018-12-30T02:44:50.687Z,26.52
2018-12-30T02:45:55.953Z,26.70
2018-12-30T02:47:00.931Z,26.95
2018-12-30T02:48:05.875Z,28.77
2018-12-30T02:49:10.702Z,26.97
2018-12-30T02:50:15.919Z,27.77
2018-12-30T02:51:20.828Z,28.35
2018-12-30T02:52:25.754Z,26.30
2018-12-30T02:53:30.636Z,28.73
2018-12-30T02:54:35.488Z,27.20
2018-12-30T02:55:40.464Z,29.52
2018-12-30T02:56:45.438Z,28.60
2018-12-30T02:57:50.288Z,29.60
2018-12-30T02:58:55.311Z,29.23
2018-12-30T03:00:00.300Z,29.23
2018-12-30T03:01:05.367Z,29.48
2018-12-30T03:02:10.164Z,29.05
2018-12-30T03:03:15.047Z,29.50
2018-12-30T03:04:19.893Z,29.20
2018-12-30T03:05:24.760Z,29.87
2018-12-30T03:06:29.757Z,28.12
2018-12-30T03:07:35.315Z,28.02
2018-12-30T03:08:40.135Z,26.50
2018-12-30T03:09:44.990Z,27.93
2018-12-30T03:10:49.898Z,27.42
2018-12-30T03:11:54.803Z,29.35
2018-12-30T03:12:59.661Z,28.85
2018-12-30T03:14:04.928Z,28.52
2018-12-30T03:15:10.467Z,28.67
2018-12-30T03:16:15.757Z,27.02
2018-12-30T03:17:20.546Z,29.82
2018-12-30T03:18:25.484Z,28.70
2018-12-30T03:19:30.328Z,29.37
2018-12-30T03:20:35.292Z,30.85
2018-12-30T03:21:40.108Z,29.80
2018-12-30T03:22:45.115Z,29.67
2018-12-30T03:23:50.017Z,28.52
2018-12-30T03:24:54.933Z,26.45
2018-12-30T03:25:59.950Z,25.43
2018-12-30T03:27:04.900Z,27.45
2018-12-30T03:28:10.005Z,25.82
2018-12-30T03:29:14.835Z,26.35
2018-12-30T03:30:19.798Z,26.73
2018-12-30T03:31:24.800Z,25.52
2018-12-30T03:32:29.822Z,26.20
2018-12-30T03:33:34.623Z,28.20
2018-12-30T03:34:39.586Z,30.12
2018-12-30T03:35:44.472Z,28.02
2018-12-30T03:36:49.260Z,30.17
2018-12-30T03:37:55.684Z,32.98
2018-12-30T03:39:00.765Z,34.53
2018-12-30T03:40:06.788Z,27.58
2018-12-30T03:41:11.629Z,30.32
2018-12-30T03:42:16.452Z,29.48
2018-12-30T03:43:21.420Z,30.45
2018-12-30T03:44:26.382Z,28.67
2018-12-30T03:45:31.389Z,27.35
2018-12-30T03:46:36.306Z,28.50
2018-12-30T03:47:41.367Z,32.42
2018-12-30T03:48:46.161Z,29.75
2018-12-30T03:49:54.028Z,30.48
2018-12-30T03:50:58.993Z,29.48
2018-12-30T03:52:08.385Z,28.55
2018-12-30T03:53:10.548Z,29.18
2018-12-30T03:54:15.597Z,28.83
2018-12-30T03:55:20.590Z,31.27
2018-12-30T03:56:25.464Z,29.25
2018-12-30T03:57:30.485Z,29.95
2018-12-30T03:58:35.432Z,31.05
2018-12-30T03:59:40.333Z,30.48
2018-12-30T04:00:45.396Z,30.45
2018-12-30T04:01:53.264Z,31.15
2018-12-30T04:02:58.152Z,30.50
2018-12-30T04:04:03.109Z,29.52
2018-12-30T04:05:08.072Z,29.48
2018-12-30T04:06:12.892Z,30.27
2018-12-30T04:07:17.681Z,31.80
2018-12-30T04:08:22.503Z,32.63
2018-12-30T04:09:27.521Z,32.38
2018-12-30T04:10:32.450Z,29.87
2018-12-30T04:11:37.333Z,28.85
2018-12-30T04:12:42.361Z,27.20
2018-12-30T04:13:47.138Z,27.50
2018-12-30T04:14:52.184Z,26.65
2018-12-30T04:15:57.164Z,24.87
2018-12-30T04:17:01.973Z,24.82
2018-12-30T04:18:07.030Z,26.02
2018-12-30T04:19:11.871Z,25.37
2018-12-30T04:20:16.721Z,24.77
2018-12-30T04:21:21.686Z,25.27
2018-12-30T04:22:26.488Z,26.55
2018-12-30T04:23:31.497Z,25.37
2018-12-30T04:24:36.404Z,25.57
2018-12-30T04:25:41.380Z,23.92
2018-12-30T04:26:46.365Z,24.02
2018-12-30T04:27:51.178Z,24.77
2018-12-30T04:28:56.192Z,24.92
2018-12-30T04:30:00.997Z,23.80
2018-12-30T04:31:05.850Z,23.77
2018-12-30T04:32:12.312Z,23.92
2018-12-30T04:33:17.216Z,24.32
2018-12-30T04:34:22.132Z,22.55
2018-12-30T04:35:26.989Z,23.32
2018-12-30T04:36:31.889Z,24.10
2018-12-30T04:37:36.661Z,24.65
2018-12-30T04:38:41.449Z,23.87
2018-12-30T04:39:46.552Z,25.80
2018-12-30T04:40:51.378Z,24.15
2018-12-30T04:41:56.197Z,25.12
2018-12-30T04:43:01.190Z,22.95
2018-12-30T04:44:06.009Z,24.15
2018-12-30T04:45:10.965Z,24.50
2018-12-30T04:46:15.883Z,24.25
2018-12-30T04:47:20.898Z,25.45
2018-12-30T04:48:25.680Z,24.10
2018-12-30T04:49:30.635Z,23.75
2018-12-30T04:50:35.472Z,23.65
2018-12-30T04:51:40.394Z,23.73
2018-12-30T04:52:45.426Z,23.35
2018-12-30T04:53:50.400Z,24.95
2018-12-30T04:54:55.256Z,24.43
2018-12-30T04:56:00.287Z,22.90
2018-12-30T04:57:05.060Z,24.47
2018-12-30T04:58:10.016Z,22.77
2018-12-30T04:59:14.921Z,23.40
2018-12-30T05:00:19.778Z,23.15
2018-12-30T05:01:24.544Z,23.55
2018-12-30T05:02:29.511Z,24.47
2018-12-30T05:03:34.488Z,25.15
2018-12-30T05:04:39.344Z,24.55
2018-12-30T05:05:44.416Z,24.92
2018-12-30T05:06:49.300Z,25.40
2018-12-30T05:07:54.116Z,24.65
2018-12-30T05:08:59.150Z,25.70
2018-12-30T05:10:04.320Z,25.23
2018-12-30T05:11:09.293Z,26.33
2018-12-30T05:12:14.345Z,25.35
2018-12-30T05:13:19.128Z,26.90
2018-12-30T05:14:24.031Z,25.20
2018-12-30T05:15:28.975Z,25.60
2018-12-30T05:16:33.792Z,23.07
2018-12-30T05:17:38.587Z,23.35
2018-12-30T05:18:43.544Z,24.07
2018-12-30T05:19:48.552Z,23.67
2018-12-30T05:20:53.408Z,22.85
2018-12-30T05:21:58.393Z,22.82
2018-12-30T05:23:03.317Z,23.50
2018-12-30T05:24:08.380Z,22.25
2018-12-30T05:25:13.208Z,24.87
2018-12-30T05:26:18.136Z,24.02
2018-12-30T05:27:23.148Z,22.32
2018-12-30T05:28:27.974Z,22.80
2018-12-30T05:29:32.796Z,23.25
2018-12-30T05:30:37.736Z,23.42
2018-12-30T05:31:42.650Z,23.38
2018-12-30T05:32:47.507Z,23.42
2018-12-30T05:33:52.425Z,24.15
2018-12-30T05:34:57.310Z,26.12
2018-12-30T05:36:02.196Z,26.27
2018-12-30T05:37:06.969Z,26.87
2018-12-30T05:38:11.939Z,25.15
2018-12-30T05:39:16.835Z,26.90
2018-12-30T05:40:21.673Z,25.45
2018-12-30T05:41:26.453Z,25.55
2018-12-30T05:42:31.403Z,26.70
2018-12-30T05:43:36.466Z,27.27
2018-12-30T05:44:41.276Z,22.75
2018-12-30T05:45:48.964Z,22.07
2018-12-30T05:46:53.927Z,21.75
2018-12-30T05:47:58.766Z,23.07
2018-12-30T05:49:03.585Z,21.80
2018-12-30T05:50:09.371Z,21.45
2018-12-30T05:51:14.360Z,22.05
2018-12-30T05:52:19.180Z,22.82
2018-12-30T05:53:24.001Z,22.27
2018-12-30T05:54:29.024Z,23.70
2018-12-30T05:55:33.968Z,19.12
2018-12-30T05:56:38.757Z,20.17
2018-12-30T05:57:43.551Z,20.00
2018-12-30T05:58:48.444Z,20.95
2018-12-30T05:59:53.500Z,20.25
2018-12-30T06:00:58.430Z,21.27
2018-12-30T06:02:03.227Z,21.40
2018-12-30T06:03:08.169Z,21.17
2018-12-30T06:04:12.996Z,23.40
2018-12-30T06:05:17.872Z,21.65
2018-12-30T06:06:22.865Z,21.65
2018-12-30T06:07:27.880Z,22.42
2018-12-30T06:08:32.660Z,19.75
2018-12-30T06:09:37.643Z,21.35
2018-12-30T06:10:42.625Z,21.25
2018-12-30T06:11:47.548Z,20.05
2018-12-30T06:12:52.325Z,21.40
2018-12-30T06:13:57.300Z,21.85
2018-12-30T06:15:02.132Z,21.60
2018-12-30T06:16:07.100Z,21.62
2018-12-30T06:17:11.904Z,19.85
2018-12-30T06:18:17.241Z,19.02
2018-12-30T06:19:22.252Z,19.92
2018-12-30T06:20:27.204Z,21.25
2018-12-30T06:21:32.008Z,20.95
2018-12-30T06:22:37.162Z,22.02
2018-12-30T06:23:42.145Z,23.10
2018-12-30T06:24:46.964Z,24.10
2018-12-30T06:25:51.791Z,24.70
2018-12-30T06:26:56.702Z,25.43
2018-12-30T06:28:01.724Z,24.77
2018-12-30T06:29:06.496Z,24.65
2018-12-30T06:30:11.320Z,23.30
2018-12-30T06:31:16.240Z,23.32
2018-12-30T06:32:21.333Z,22.10
2018-12-30T06:33:26.154Z,20.85
2018-12-30T06:34:31.129Z,21.07
2018-12-30T06:35:36.165Z,21.15
2018-12-30T06:36:41.090Z,20.32
2018-12-30T06:37:45.996Z,20.30
2018-12-30T06:38:50.939Z,19.82
2018-12-30T06:39:55.938Z,20.12
2018-12-30T06:41:00.900Z,19.02
2018-12-30T06:42:05.720Z,20.80
2018-12-30T06:43:10.635Z,21.35
2018-12-30T06:44:15.789Z,20.85
2018-12-30T06:45:20.706Z,22.82
2018-12-30T06:46:25.495Z,22.98
2018-12-30T06:47:30.520Z,24.02
2018-12-30T06:48:35.565Z,21.97
2018-12-30T06:49:40.373Z,22.10
2018-12-30T06:50:46.460Z,23.27
2018-12-30T06:51:51.472Z,22.35
2018-12-30T06:52:57.724Z,21.70
2018-12-30T06:54:02.882Z,21.52
2018-12-30T06:55:07.852Z,20.90
2018-12-30T06:56:12.916Z,20.32
2018-12-30T06:57:17.785Z,18.12
2018-12-30T06:58:22.770Z,19.35
2018-12-30T06:59:27.796Z,18.07
2018-12-30T07:00:32.792Z,17.50
2018-12-30T07:01:37.725Z,17.70
2018-12-30T07:02:42.648Z,16.27
2018-12-30T07:03:47.556Z,15.38
2018-12-30T07:04:52.372Z,15.53
2018-12-30T07:05:57.213Z,15.50
2018-12-30T07:07:02.232Z,16.12
2018-12-30T07:08:07.142Z,15.80
2018-12-30T07:09:11.972Z,14.63
2018-12-30T07:10:17.284Z,16.30
2018-12-30T07:11:22.379Z,15.15
2018-12-30T07:12:27.267Z,16.02
2018-12-30T07:13:32.125Z,15.75
2018-12-30T07:14:37.033Z,17.25
2018-12-30T07:15:42.050Z,17.10
2018-12-30T07:16:46.940Z,17.42
2018-12-30T07:17:51.884Z,17.37
2018-12-30T07:18:56.832Z,17.42
2018-12-30T07:20:01.696Z,18.02
2018-12-30T07:21:06.665Z,17.57
2018-12-30T07:22:11.508Z,16.75
2018-12-30T07:23:16.648Z,16.95
2018-12-30T07:24:21.687Z,16.97
2018-12-30T07:25:26.492Z,16.07
2018-12-30T07:26:31.430Z,17.02
2018-12-30T07:27:37.614Z,17.50
2018-12-30T07:28:42.737Z,16.57
2018-12-30T07:29:48.112Z,17.52
2018-12-30T07:30:53.156Z,18.05
2018-12-30T07:31:58.488Z,18.02
2018-12-30T07:33:03.804Z,18.67
2018-12-30T07:34:08.944Z,18.20
2018-12-30T07:35:14.113Z,19.10
2018-12-30T07:36:19.264Z,18.07
2018-12-30T07:37:24.296Z,17.77
2018-12-30T07:38:29.493Z,19.05
2018-12-30T07:39:34.839Z,19.00
2018-12-30T07:40:39.716Z,18.17
2018-12-30T07:41:44.738Z,17.90
2018-12-30T07:42:49.924Z,17.50
2018-12-30T07:43:55.220Z,17.95
2018-12-30T07:45:00.255Z,17.30
2018-12-30T07:46:05.488Z,17.90
2018-12-30T07:47:10.591Z,17.42
2018-12-30T07:48:15.694Z,17.27
2018-12-30T07:49:20.642Z,16.80
2018-12-30T07:50:25.846Z,16.23
2018-12-30T07:51:31.331Z,17.32
2018-12-30T07:52:36.502Z,17.00
2018-12-30T07:53:42.056Z,18.12
2018-12-30T07:54:47.248Z,18.32
2018-12-30T07:55:52.249Z,17.67
2018-12-30T07:56:57.264Z,17.60
2018-12-30T07:58:02.319Z,17.35
2018-12-30T07:59:07.610Z,17.35
2018-12-30T08:00:12.521Z,16.97
2018-12-30T08:01:17.696Z,15.88
2018-12-30T08:02:22.820Z,14.95
2018-12-30T08:03:27.946Z,15.35
2018-12-30T08:04:33.084Z,14.83
2018-12-30T08:05:38.112Z,15.32
2018-12-30T08:06:43.062Z,15.68
2018-12-30T08:07:48.524Z,15.85
2018-12-30T08:08:53.747Z,17.15
2018-12-30T08:09:58.917Z,17.17
2018-12-30T08:11:03.850Z,17.35
2018-12-30T08:12:08.879Z,16.80
2018-12-30T08:13:14.151Z,17.62
2018-12-30T08:14:19.335Z,15.72
2018-12-30T08:15:24.240Z,16.55
2018-12-30T08:16:29.405Z,15.13
2018-12-30T08:17:34.533Z,15.25
2018-12-30T08:18:39.722Z,14.90
2018-12-30T08:19:44.687Z,14.30
2018-12-30T08:20:49.579Z,14.13
2018-12-30T08:21:54.562Z,13.00
2018-12-30T08:22:59.734Z,12.68
2018-12-30T08:24:04.745Z,12.90
2018-12-30T08:25:09.785Z,13.25
2018-12-30T08:26:14.881Z,12.23
2018-12-30T08:27:20.140Z,11.50
2018-12-30T08:28:25.396Z,12.03
2018-12-30T08:29:30.698Z,12.95
2018-12-30T08:30:35.925Z,12.58
2018-12-30T08:31:41.166Z,12.60
2018-12-30T08:32:46.059Z,12.78
2018-12-30T08:33:51.404Z,12.93
2018-12-30T08:34:56.585Z,12.23
2018-12-30T08:36:01.658Z,12.28
2018-12-30T08:37:06.813Z,12.18
2018-12-30T08:38:11.827Z,12.20
2018-12-30T08:39:16.896Z,12.20
2018-12-30T08:40:21.742Z,12.33
2018-12-30T08:41:26.632Z,12.45
2018-12-30T08:42:31.665Z,13.05
2018-12-30T08:43:36.860Z,14.28
2018-12-30T08:44:41.757Z,14.25
2018-12-30T08:45:46.693Z,14.53
2018-12-30T08:46:51.761Z,14.90
2018-12-30T08:47:56.740Z,13.68
2018-12-30T08:49:01.981Z,13.20
2018-12-30T08:50:07.252Z,12.55
2018-12-30T08:51:12.361Z,11.95
2018-12-30T08:52:17.201Z,11.73
2018-12-30T08:53:29.170Z,12.03
2018-12-30T08:54:29.224Z,10.55
2018-12-30T08:55:34.184Z,10.75
2018-12-30T08:56:39.344Z,10.40
2018-12-30T08:57:44.662Z,10.70
2018-12-30T08:58:49.551Z,9.78
2018-12-30T08:59:54.782Z,10.58
2018-12-30T09:01:01.185Z,10.65
2018-12-30T09:02:06.428Z,10.28
2018-12-30T09:03:11.948Z,9.75
2018-12-30T09:04:17.297Z,9.60
2018-12-30T09:05:22.445Z,8.63
2018-12-30T09:06:27.493Z,8.90
2018-12-30T09:07:32.605Z,9.28
2018-12-30T09:08:37.693Z,8.98
2018-12-30T09:09:43.052Z,8.95
2018-12-30T09:10:47.959Z,9.33
2018-12-30T09:11:53.036Z,8.50
2018-12-30T09:12:57.964Z,8.38
2018-12-30T09:14:03.129Z,8.80
2018-12-30T09:15:07.977Z,8.50
2018-12-30T09:16:12.829Z,8.53
2018-12-30T09:17:18.422Z,9.25
2018-12-30T09:18:23.314Z,9.45
2018-12-30T09:19:28.121Z,8.88
2018-12-30T09:20:33.022Z,9.08
2018-12-30T09:21:37.936Z,8.68
2018-12-30T09:22:42.873Z,9.50
2018-12-30T09:23:47.642Z,9.38
2018-12-30T09:24:52.735Z,9.88
2018-12-30T09:25:57.606Z,10.50
2018-12-30T09:27:02.508Z,10.08
2018-12-30T09:28:07.686Z,11.25
2018-12-30T09:29:12.562Z,10.55
2018-12-30T09:30:17.348Z,10.30
2018-12-30T09:31:22.148Z,10.00
2018-12-30T09:32:26.980Z,10.18
2018-12-30T09:33:31.844Z,10.15
2018-12-30T09:34:36.701Z,10.53
2018-12-30T09:35:41.511Z,10.88
2018-12-30T09:36:46.400Z,10.68
2018-12-30T09:37:51.269Z,10.72
2018-12-30T09:38:56.068Z,10.43
2018-12-30T09:40:00.936Z,10.90
2018-12-30T09:41:05.809Z,11.70
2018-12-30T09:42:10.650Z,10.58
2018-12-30T09:43:15.568Z,11.25
2018-12-30T09:44:20.434Z,10.75
2018-12-30T09:45:25.213Z,10.60
2018-12-30T09:46:30.177Z,10.72
2018-12-30T09:47:35.155Z,10.45
2018-12-30T09:48:40.107Z,10.72
2018-12-30T09:49:45.693Z,10.53
2018-12-30T09:50:50.790Z,10.48
2018-12-30T09:51:55.884Z,10.85
2018-12-30T09:53:00.733Z,10.75
2018-12-30T09:54:05.884Z,10.35
2018-12-30T09:55:10.913Z,10.30
2018-12-30T09:56:15.893Z,11.22
2018-12-30T09:57:20.900Z,10.72
2018-12-30T09:58:25.803Z,11.73
2018-12-30T09:59:30.913Z,11.43
2018-12-30T10:00:35.784Z,10.68
2018-12-30T10:01:40.925Z,10.48
2018-12-30T10:02:45.929Z,11.08
2018-12-30T10:03:50.936Z,10.48
2018-12-30T10:04:55.742Z,10.70
2018-12-30T10:06:00.789Z,10.80
2018-12-30T10:07:05.596Z,10.10
2018-12-30T10:08:10.714Z,10.30
2018-12-30T10:09:15.695Z,11.00
2018-12-30T10:10:20.708Z,11.10
2018-12-30T10:11:25.640Z,12.40
2018-12-30T10:12:30.512Z,11.50
2018-12-30T10:13:35.740Z,10.82
2018-12-30T10:14:40.772Z,10.63
2018-12-30T10:15:45.662Z,11.53
2018-12-30T10:16:50.724Z,10.95
2018-12-30T10:17:55.590Z,11.48
2018-12-30T10:19:00.669Z,10.50
2018-12-30T10:20:07.395Z,10.25
2018-12-30T10:21:12.363Z,11.60
2018-12-30T10:22:17.401Z,11.20
2018-12-30T10:23:22.322Z,11.00
2018-12-30T10:24:27.368Z,11.57
2018-12-30T10:25:32.369Z,11.93
2018-12-30T10:26:37.245Z,12.13
2018-12-30T10:27:42.018Z,13.15
2018-12-30T10:28:46.887Z,14.60
2018-12-30T10:29:51.817Z,15.35
2018-12-30T10:30:56.803Z,20.52
2018-12-30T10:32:01.632Z,19.70
2018-12-30T10:33:08.215Z,20.23
2018-12-30T10:34:13.098Z,20.23
2018-12-30T10:35:19.369Z,20.05
2018-12-30T10:36:24.348Z,18.12
2018-12-30T10:37:29.260Z,16.55
2018-12-30T10:38:34.217Z,16.95
2018-12-30T10:39:39.330Z,17.35
2018-12-30T10:40:44.344Z,19.85
2018-12-30T10:41:49.278Z,18.67
2018-12-30T10:42:54.312Z,20.68
2018-12-30T10:43:59.183Z,24.77
2018-12-30T10:45:05.324Z,22.67
2018-12-30T10:46:10.647Z,23.60
2018-12-30T10:47:15.611Z,23.05
2018-12-30T10:48:20.553Z,22.82
2018-12-30T10:49:25.432Z,23.87
2018-12-30T10:50:30.312Z,22.00
2018-12-30T10:51:35.368Z,22.60
2018-12-30T10:52:40.200Z,22.15
2018-12-30T10:53:45.019Z,21.60
2018-12-30T10:54:49.965Z,21.42
2018-12-30T10:55:54.837Z,20.32
2018-12-30T10:56:59.697Z,23.60
2018-12-30T10:58:04.599Z,25.77
2018-12-30T10:59:09.393Z,27.15
2018-12-30T11:00:14.485Z,25.92
2018-12-30T11:01:19.280Z,22.77
2018-12-30T11:02:24.141Z,21.95
2018-12-30T11:03:28.999Z,22.58
2018-12-30T11:04:33.999Z,22.20
2018-12-30T11:05:38.742Z,22.98
2018-12-30T11:06:43.657Z,22.40
2018-12-30T11:07:48.572Z,22.80
2018-12-30T11:08:53.373Z,19.12
2018-12-30T11:09:58.193Z,20.85
2018-12-30T11:11:02.987Z,18.52
2018-12-30T11:12:07.820Z,16.62
2018-12-30T11:13:12.636Z,18.90
2018-12-30T11:14:17.412Z,21.77
2018-12-30T11:15:22.203Z,24.00
2018-12-30T11:16:27.006Z,19.42
2018-12-30T11:17:31.921Z,19.92
2018-12-30T11:18:36.733Z,17.40
2018-12-30T11:19:41.604Z,14.78
2018-12-30T11:20:46.417Z,14.28
2018-12-30T11:21:51.256Z,13.40
2018-12-30T11:22:57.300Z,13.00
2018-12-30T11:24:08.461Z,11.00
2018-12-30T11:25:08.843Z,12.58
2018-12-30T11:26:13.769Z,12.68
2018-12-30T11:27:18.621Z,13.00
2018-12-30T11:28:23.536Z,11.40
2018-12-30T11:29:30.889Z,11.18
2018-12-30T11:30:35.748Z,10.78
2018-12-30T11:31:40.526Z,10.15
2018-12-30T11:32:45.369Z,10.88
2018-12-30T11:33:50.202Z,10.30
2018-12-30T11:34:55.049Z,10.23
2018-12-30T11:35:59.862Z,9.88
2018-12-30T11:37:04.712Z,10.43
2018-12-30T11:38:09.711Z,10.40
2018-12-30T11:39:14.580Z,10.68
2018-12-30T11:40:19.813Z,11.40
2018-12-30T11:41:24.726Z,11.00
2018-12-30T11:42:29.617Z,10.88
2018-12-30T11:43:34.566Z,10.63
2018-12-30T11:44:39.384Z,10.75
2018-12-30T11:45:44.457Z,10.55
2018-12-30T11:46:49.298Z,9.85
2018-12-30T11:47:54.991Z,10.05
2018-12-30T11:48:59.948Z,10.68
2018-12-30T11:50:05.475Z,10.23
2018-12-30T11:51:10.954Z,10.45
2018-12-30T11:52:15.772Z,9.65
2018-12-30T11:53:20.861Z,10.25
2018-12-30T11:54:25.718Z,11.18
2018-12-30T11:55:30.553Z,11.05
2018-12-30T11:56:35.422Z,10.53
2018-12-30T11:57:40.368Z,10.60
2018-12-30T11:58:45.360Z,14.98
2018-12-30T11:59:50.196Z,16.10
2018-12-30T12:00:55.014Z,13.62
2018-12-30T12:01:59.989Z,13.75
2018-12-30T12:03:04.996Z,15.05
2018-12-30T12:04:09.904Z,14.20
2018-12-30T12:05:14.757Z,12.13
2018-12-30T12:06:19.606Z,13.62
2018-12-30T12:07:24.500Z,12.20
2018-12-30T12:08:29.363Z,12.30
2018-12-30T12:09:34.197Z,10.35
2018-12-30T12:10:39.035Z,6.62
2018-12-30T12:11:43.840Z,7.15
2018-12-30T12:12:49.415Z,7.10
2018-12-30T12:13:54.468Z,7.85
2018-12-30T12:15:02.057Z,8.93
2018-12-30T12:16:07.022Z,7.42
2018-12-30T12:17:12.054Z,9.60
2018-12-30T12:18:16.910Z,7.70
2018-12-30T12:19:21.722Z,6.45
2018-12-30T12:20:26.550Z,6.10
2018-12-30T12:21:31.382Z,7.15
2018-12-30T12:22:36.339Z,6.87
2018-12-30T12:23:41.226Z,6.67
2018-12-30T12:24:46.074Z,7.87
2018-12-30T12:25:51.417Z,6.72
2018-12-30T12:26:56.472Z,5.12
2018-12-30T12:28:01.538Z,6.25
2018-12-30T12:29:07.267Z,5.42
2018-12-30T12:30:13.020Z,5.92
2018-12-30T12:31:17.944Z,5.65
2018-12-30T12:32:22.765Z,5.25
2018-12-30T12:33:27.748Z,6.97
2018-12-30T12:34:32.611Z,15.05
2018-12-30T12:35:37.529Z,11.03
2018-12-30T12:36:42.369Z,6.87
2018-12-30T12:37:48.435Z,5.22
2018-12-30T12:38:53.352Z,5.05
2018-12-30T12:39:58.240Z,5.65
2018-12-30T12:41:03.641Z,5.47
2018-12-30T12:42:08.557Z,5.25
2018-12-30T12:43:13.483Z,4.97
2018-12-30T12:44:18.388Z,4.85
2018-12-30T12:45:23.636Z,5.00
2018-12-30T12:46:28.449Z,5.62
2018-12-30T12:47:33.228Z,5.22
2018-12-30T12:48:38.132Z,4.45
2018-12-30T12:49:42.969Z,4.55
2018-12-30T12:50:47.789Z,4.92
2018-12-30T12:51:52.624Z,4.33
2018-12-30T12:52:57.503Z,4.80
2018-12-30T12:54:02.378Z,4.80
2018-12-30T12:55:07.366Z,4.50
2018-12-30T12:56:12.313Z,4.15
2018-12-30T12:57:17.195Z,4.08
2018-12-30T12:58:22.199Z,5.28
2018-12-30T12:59:26.970Z,8.08
2018-12-30T13:00:31.797Z,7.03
2018-12-30T13:01:36.632Z,7.40
2018-12-30T13:02:41.576Z,5.90
2018-12-30T13:03:46.536Z,5.10
2018-12-30T13:04:51.370Z,4.62
2018-12-30T13:05:56.245Z,3.52
2018-12-30T13:07:01.121Z,3.90
2018-12-30T13:08:07.082Z,3.50
2018-12-30T13:09:12.316Z,3.37
2018-12-30T13:10:17.262Z,3.95
2018-12-30T13:11:22.124Z,3.50
2018-12-30T13:12:27.133Z,3.55
2018-12-30T13:13:32.169Z,3.83
2018-12-30T13:14:37.345Z,4.60
2018-12-30T13:15:42.335Z,4.17
2018-12-30T13:16:47.235Z,4.10
2018-12-30T13:17:52.169Z,3.83
2018-12-30T13:18:57.050Z,3.30
2018-12-30T13:20:02.051Z,4.03
2018-12-30T13:21:06.973Z,4.53
2018-12-30T13:22:11.855Z,5.45
2018-12-30T13:23:16.756Z,5.65
2018-12-30T13:24:21.674Z,5.12
2018-12-30T13:25:26.672Z,5.60
2018-12-30T13:26:31.795Z,11.57
2018-12-30T13:27:36.691Z,11.55
2018-12-30T13:28:41.720Z,6.17
2018-12-30T13:29:46.592Z,5.72
2018-12-30T13:30:51.560Z,4.75
2018-12-30T13:31:56.390Z,4.85
2018-12-30T13:33:01.292Z,5.20
2018-12-30T13:34:06.111Z,4.90
2018-12-30T13:35:10.936Z,4.80
2018-12-30T13:36:16.671Z,4.37
2018-12-30T13:37:21.460Z,4.33
2018-12-30T13:38:28.431Z,4.65
2018-12-30T13:39:33.041Z,4.17
2018-12-30T13:40:37.869Z,4.90
2018-12-30T13:41:42.678Z,5.30
2018-12-30T13:42:47.630Z,5.50
2018-12-30T13:43:52.613Z,4.97
2018-12-30T13:44:57.491Z,5.03
2018-12-30T13:46:02.269Z,5.00
2018-12-30T13:47:07.106Z,4.95
2018-12-30T13:48:11.991Z,5.20
2018-12-30T13:49:16.856Z,5.03
2018-12-30T13:50:21.781Z,6.53
2018-12-30T13:51:26.623Z,6.42
2018-12-30T13:52:31.443Z,6.55
2018-12-30T13:53:36.537Z,5.58
2018-12-30T13:54:47.731Z,6.00
2018-12-30T13:55:48.728Z,5.08
2018-12-30T13:56:53.736Z,7.03
2018-12-30T13:58:00.404Z,5.55
2018-12-30T13:59:05.283Z,6.92
2018-12-30T14:00:10.924Z,6.37
2018-12-30T14:01:15.832Z,6.72
2018-12-30T14:02:20.664Z,7.95